sensor_id;sensor_type;location;lat;lon;timestamp;pressure;altitude;pressure_sealevel;temperature;humidity
49423;BME280;36998;51.974;20.150;2022-10-31T00:00:08;100413.34;;;12.51;71.41
49423;BME280;36998;51.974;20.150;2022-10-31T00:02:37;100421.66;;;12.49;71.46
49423;BME280;36998;51.974;20.150;2022-10-31T00:05:02;100417.91;;;12.50;71.13
49423;BME280;36998;51.974;20.150;2022-10-31T00:07:28;100403.69;;;12.48;71.15
49423;BME280;36998;51.974;20.150;2022-10-31T00:09:53;100411.81;;;12.48;71.14
49423;BME280;36998;51.974;20.150;2022-10-31T00:12:18;100416.22;;;12.49;71.18
49423;BME280;36998;51.974;20.150;2022-10-31T00:14:44;100408.75;;;12.51;71.25
49423;BME280;36998;51.974;20.150;2022-10-31T00:17:09;100413.34;;;12.51;71.17
49423;BME280;36998;51.974;20.150;2022-10-31T00:19:35;100416.38;;;12.48;71.07
49423;BME280;36998;51.974;20.150;2022-10-31T00:22:00;100408.44;;;12.46;71.47
49423;BME280;36998;51.974;20.150;2022-10-31T00:24:26;100412.34;;;12.44;71.37
49423;BME280;36998;51.974;20.150;2022-10-31T00:26:51;100415.03;;;12.44;71.33
49423;BME280;36998;51.974;20.150;2022-10-31T00:29:20;100410.81;;;12.41;71.31
49423;BME280;36998;51.974;20.150;2022-10-31T00:31:45;100416.91;;;12.43;71.09
49423;BME280;36998;51.974;20.150;2022-10-31T00:34:11;100413.19;;;12.44;71.15
49423;BME280;36998;51.974;20.150;2022-10-31T00:36:36;100417.06;;;12.41;71.36
49423;BME280;36998;51.974;20.150;2022-10-31T00:39:02;100416.41;;;12.39;71.11
49423;BME280;36998;51.974;20.150;2022-10-31T00:41:27;100417.59;;;12.37;71.05
49423;BME280;36998;51.974;20.150;2022-10-31T00:43:54;100425.88;;;12.35;71.37
49423;BME280;36998;51.974;20.150;2022-10-31T00:46:20;100422.66;;;12.32;71.11
49423;BME280;36998;51.974;20.150;2022-10-31T00:48:46;100419.97;;;12.32;71.12
49423;BME280;36998;51.974;20.150;2022-10-31T00:51:11;100423.69;;;12.31;71.09
49423;BME280;36998;51.974;20.150;2022-10-31T00:53:39;100417.78;;;12.27;71.54
49423;BME280;36998;51.974;20.150;2022-10-31T00:56:05;100420.13;;;12.22;71.07
49423;BME280;36998;51.974;20.150;2022-10-31T00:58:31;100428.44;;;12.21;71.13
49423;BME280;36998;51.974;20.150;2022-10-31T01:00:56;100417.78;;;12.19;71.25
49423;BME280;36998;51.974;20.150;2022-10-31T01:03:24;100424.41;;;12.16;71.43
49423;BME280;36998;51.974;20.150;2022-10-31T01:06:16;100420.66;;;12.17;71.41
49423;BME280;36998;51.974;20.150;2022-10-31T01:08:41;100423.88;;;12.13;71.33
49423;BME280;36998;51.974;20.150;2022-10-31T01:11:20;100407.63;;;12.13;71.42
49423;BME280;36998;51.974;20.150;2022-10-31T01:13:47;100416.78;;;12.12;71.42
49423;BME280;36998;51.974;20.150;2022-10-31T01:16:14;100415.41;;;12.08;71.45
49423;BME280;36998;51.974;20.150;2022-10-31T01:18:41;100417.44;;;12.06;71.56
49423;BME280;36998;51.974;20.150;2022-10-31T01:21:08;100416.78;;;12.04;71.31
49423;BME280;36998;51.974;20.150;2022-10-31T01:23:34;100415.91;;;12.03;71.37
49423;BME280;36998;51.974;20.150;2022-10-31T01:26:05;100412.38;;;12.03;71.25
49423;BME280;36998;51.974;20.150;2022-10-31T01:28:32;100409.50;;;12.04;71.06
49423;BME280;36998;51.974;20.150;2022-10-31T01:31:02;100404.09;;;12.04;71.12
49423;BME280;36998;51.974;20.150;2022-10-31T01:33:28;100407.63;;;12.05;71.05
49423;BME280;36998;51.974;20.150;2022-10-31T01:35:54;100402.38;;;12.03;71.27
49423;BME280;36998;51.974;20.150;2022-10-31T01:38:19;100409.66;;;12.03;70.92
49423;BME280;36998;51.974;20.150;2022-10-31T01:40:45;100407.63;;;12.05;71.04
49423;BME280;36998;51.974;20.150;2022-10-31T01:43:13;100406.63;;;12.06;71.14
49423;BME280;36998;51.974;20.150;2022-10-31T01:45:39;100412.72;;;12.08;70.79
49423;BME280;36998;51.974;20.150;2022-10-31T01:48:05;100414.59;;;12.07;71.17
49423;BME280;36998;51.974;20.150;2022-10-31T01:50:35;100408.66;;;12.04;71.30
49423;BME280;36998;51.974;20.150;2022-10-31T01:53:05;100413.06;;;12.05;70.96
49423;BME280;36998;51.974;20.150;2022-10-31T01:55:35;100404.75;;;12.06;70.82
49423;BME280;36998;51.974;20.150;2022-10-31T01:58:13;100406.47;;;12.07;71.06
49423;BME280;36998;51.974;20.150;2022-10-31T02:00:43;100404.75;;;12.06;70.90
49423;BME280;36998;51.974;20.150;2022-10-31T02:03:11;100405.09;;;12.03;71.03
49423;BME280;36998;51.974;20.150;2022-10-31T02:05:37;100406.09;;;12.02;71.18
49423;BME280;36998;51.974;20.150;2022-10-31T02:08:13;100414.22;;;12.02;71.29
49423;BME280;36998;51.974;20.150;2022-10-31T02:10:40;100419.66;;;12.02;70.84
49423;BME280;36998;51.974;20.150;2022-10-31T02:13:08;100413.38;;;12.02;71.21
49423;BME280;36998;51.974;20.150;2022-10-31T02:15:40;100417.28;;;12.07;71.28
49423;BME280;36998;51.974;20.150;2022-10-31T02:18:08;100412.19;;;12.12;71.19
49423;BME280;36998;51.974;20.150;2022-10-31T02:23:56;100417.78;;;12.11;70.99
49423;BME280;36998;51.974;20.150;2022-10-31T02:31:45;100429.28;;;12.13;71.74
49423;BME280;36998;51.974;20.150;2022-10-31T02:34:25;100420.81;;;12.16;71.27
49423;BME280;36998;51.974;20.150;2022-10-31T02:37:17;100419.13;;;12.15;71.13
49423;BME280;36998;51.974;20.150;2022-10-31T02:39:59;100417.28;;;12.15;71.54
49423;BME280;36998;51.974;20.150;2022-10-31T02:42:51;100418.44;;;12.13;71.68
49423;BME280;36998;51.974;20.150;2022-10-31T02:45:29;100420.31;;;12.12;71.71
49423;BME280;36998;51.974;20.150;2022-10-31T02:47:58;100418.28;;;12.14;71.43
49423;BME280;36998;51.974;20.150;2022-10-31T02:50:27;100423.34;;;12.34;70.78
49423;BME280;36998;51.974;20.150;2022-10-31T02:52:53;100432.16;;;12.19;71.37
49423;BME280;36998;51.974;20.150;2022-10-31T02:57:48;100429.81;;;12.16;71.55
49423;BME280;36998;51.974;20.150;2022-10-31T03:00:16;100430.66;;;12.17;71.17
49423;BME280;36998;51.974;20.150;2022-10-31T03:03:14;100428.78;;;12.17;71.48
49423;BME280;36998;51.974;20.150;2022-10-31T03:05:58;100430.81;;;12.15;71.47
49423;BME280;36998;51.974;20.150;2022-10-31T03:08:41;100434.53;;;12.14;71.36
49423;BME280;36998;51.974;20.150;2022-10-31T03:11:08;100436.06;;;12.17;71.40
49423;BME280;36998;51.974;20.150;2022-10-31T03:13:44;100430.47;;;12.18;71.74
49423;BME280;36998;51.974;20.150;2022-10-31T03:16:29;100438.44;;;12.20;71.47
49423;BME280;36998;51.974;20.150;2022-10-31T03:19:09;100435.88;;;12.18;71.60
49423;BME280;36998;51.974;20.150;2022-10-31T03:21:40;100434.69;;;12.13;71.46
49423;BME280;36998;51.974;20.150;2022-10-31T03:24:08;100435.41;;;12.07;71.59
49423;BME280;36998;51.974;20.150;2022-10-31T03:26:42;100435.41;;;12.07;71.82
49423;BME280;36998;51.974;20.150;2022-10-31T03:29:11;100440.63;;;12.08;71.88
49423;BME280;36998;51.974;20.150;2022-10-31T03:31:50;100436.91;;;12.09;71.67
49423;BME280;36998;51.974;20.150;2022-10-31T03:34:18;100432.34;;;12.10;71.51
49423;BME280;36998;51.974;20.150;2022-10-31T03:36:47;100432.34;;;12.10;71.83
49423;BME280;36998;51.974;20.150;2022-10-31T03:39:15;100429.66;;;12.10;71.94
49423;BME280;36998;51.974;20.150;2022-10-31T03:41:52;100428.78;;;12.09;71.77
49423;BME280;36998;51.974;20.150;2022-10-31T03:44:20;100434.69;;;12.13;71.53
49423;BME280;36998;51.974;20.150;2022-10-31T03:46:54;100438.78;;;12.17;71.88
49423;BME280;36998;51.974;20.150;2022-10-31T03:49:21;100434.19;;;12.17;71.57
49423;BME280;36998;51.974;20.150;2022-10-31T03:54:30;100447.22;;;12.22;71.57
49423;BME280;36998;51.974;20.150;2022-10-31T04:00:03;100446.03;;;12.25;71.60
49423;BME280;36998;51.974;20.150;2022-10-31T04:02:32;100443.53;;;12.23;71.72
49423;BME280;36998;51.974;20.150;2022-10-31T04:05:00;100450.63;;;12.24;71.65
49423;BME280;36998;51.974;20.150;2022-10-31T04:07:33;100452.28;;;12.25;71.49
49423;BME280;36998;51.974;20.150;2022-10-31T04:10:02;100457.03;;;12.31;71.34
49423;BME280;36998;51.974;20.150;2022-10-31T04:12:30;100455.00;;;12.33;71.38
49423;BME280;36998;51.974;20.150;2022-10-31T04:15:28;100461.59;;;12.39;71.37
49423;BME280;36998;51.974;20.150;2022-10-31T04:17:56;100456.03;;;12.40;71.70
49423;BME280;36998;51.974;20.150;2022-10-31T04:20:31;100465.50;;;12.45;71.52
49423;BME280;36998;51.974;20.150;2022-10-31T04:22:57;100462.44;;;12.48;71.56
49423;BME280;36998;51.974;20.150;2022-10-31T04:25:22;100460.56;;;12.48;71.50
49423;BME280;36998;51.974;20.150;2022-10-31T04:27:50;100470.41;;;12.49;71.69
49423;BME280;36998;51.974;20.150;2022-10-31T04:30:17;100473.97;;;12.50;71.72
49423;BME280;36998;51.974;20.150;2022-10-31T04:32:42;100473.28;;;12.48;71.72
49423;BME280;36998;51.974;20.150;2022-10-31T04:35:08;100480.38;;;12.49;71.67
49423;BME280;36998;51.974;20.150;2022-10-31T04:37:33;100481.91;;;12.51;71.46
49423;BME280;36998;51.974;20.150;2022-10-31T04:40:02;100484.13;;;12.48;71.81
49423;BME280;36998;51.974;20.150;2022-10-31T04:42:46;100487.16;;;12.53;71.42
49423;BME280;36998;51.974;20.150;2022-10-31T04:45:12;100478.00;;;12.54;71.43
49423;BME280;36998;51.974;20.150;2022-10-31T04:47:38;100484.63;;;12.59;71.60
49423;BME280;36998;51.974;20.150;2022-10-31T04:50:05;100471.06;;;12.59;71.61
49423;BME280;36998;51.974;20.150;2022-10-31T04:52:32;100474.28;;;12.63;71.83
49423;BME280;36998;51.974;20.150;2022-10-31T04:54:58;100482.72;;;12.68;71.56
49423;BME280;36998;51.974;20.150;2022-10-31T04:58:02;100477.47;;;12.75;71.47
49423;BME280;36998;51.974;20.150;2022-10-31T05:00:28;100484.59;;;12.76;71.70
49423;BME280;36998;51.974;20.150;2022-10-31T05:02:56;100480.00;;;12.76;71.71
49423;BME280;36998;51.974;20.150;2022-10-31T05:05:25;100478.47;;;12.82;71.72
49423;BME280;36998;51.974;20.150;2022-10-31T05:07:51;100474.75;;;12.83;71.64
49423;BME280;36998;51.974;20.150;2022-10-31T05:10:21;100481.50;;;12.87;71.65
49423;BME280;36998;51.974;20.150;2022-10-31T05:12:54;100476.91;;;12.87;71.46
49423;BME280;36998;51.974;20.150;2022-10-31T05:15:38;100469.75;;;13.03;71.03
49423;BME280;36998;51.974;20.150;2022-10-31T05:18:22;100481.19;;;12.82;71.92
49423;BME280;36998;51.974;20.150;2022-10-31T05:21:19;100475.41;;;12.85;71.90
49423;BME280;36998;51.974;20.150;2022-10-31T05:23:51;100479.63;;;12.87;71.85
49423;BME280;36998;51.974;20.150;2022-10-31T05:26:22;100480.13;;;12.91;71.79
49423;BME280;36998;51.974;20.150;2022-10-31T05:28:51;100473.19;;;12.97;72.10
49423;BME280;36998;51.974;20.150;2022-10-31T05:31:16;100478.75;;;13.03;71.65
49423;BME280;36998;51.974;20.150;2022-10-31T05:33:42;100478.25;;;13.08;71.92
49423;BME280;36998;51.974;20.150;2022-10-31T05:36:42;100474.31;;;13.10;71.75
49423;BME280;36998;51.974;20.150;2022-10-31T05:39:14;100473.81;;;13.07;71.58
49423;BME280;36998;51.974;20.150;2022-10-31T05:41:42;100478.94;;;12.94;72.02
49423;BME280;36998;51.974;20.150;2022-10-31T05:44:13;100481.16;;;12.90;72.16
49423;BME280;36998;51.974;20.150;2022-10-31T05:47:17;100485.69;;;12.98;72.34
49423;BME280;36998;51.974;20.150;2022-10-31T05:50:07;100493.81;;;13.06;72.51
49423;BME280;36998;51.974;20.150;2022-10-31T05:52:33;100491.06;;;13.14;72.54
49423;BME280;36998;51.974;20.150;2022-10-31T05:55:06;100488.69;;;13.19;72.13
49423;BME280;36998;51.974;20.150;2022-10-31T05:57:36;100489.38;;;13.13;72.30
49423;BME280;36998;51.974;20.150;2022-10-31T06:00:03;100500.94;;;13.07;72.58
49423;BME280;36998;51.974;20.150;2022-10-31T06:02:32;100492.13;;;13.05;72.94
49423;BME280;36998;51.974;20.150;2022-10-31T06:05:19;100487.38;;;13.07;73.01
49423;BME280;36998;51.974;20.150;2022-10-31T06:07:45;100488.75;;;13.03;73.17
49423;BME280;36998;51.974;20.150;2022-10-31T06:10:10;100485.69;;;12.98;73.53
49423;BME280;36998;51.974;20.150;2022-10-31T06:12:37;100497.56;;;13.05;73.55
49423;BME280;36998;51.974;20.150;2022-10-31T06:15:16;100489.38;;;13.21;72.59
49423;BME280;36998;51.974;20.150;2022-10-31T06:17:42;100500.22;;;13.13;73.37
49423;BME280;36998;51.974;20.150;2022-10-31T06:20:27;100491.78;;;13.24;73.61
49423;BME280;36998;51.974;20.150;2022-10-31T06:23:01;100500.22;;;13.29;73.31
49423;BME280;36998;51.974;20.150;2022-10-31T06:25:27;100499.84;;;13.32;73.46
49423;BME280;36998;51.974;20.150;2022-10-31T06:27:59;100500.56;;;13.26;73.29
49423;BME280;36998;51.974;20.150;2022-10-31T06:30:36;100498.69;;;13.19;73.50
49423;BME280;36998;51.974;20.150;2022-10-31T06:33:05;100488.84;;;13.18;74.25
49423;BME280;36998;51.974;20.150;2022-10-31T06:35:33;100496.28;;;13.24;74.04
49423;BME280;36998;51.974;20.150;2022-10-31T06:37:59;100507.00;;;13.25;73.69
49423;BME280;36998;51.974;20.150;2022-10-31T06:40:43;100507.16;;;13.32;73.91
49423;BME280;36998;51.974;20.150;2022-10-31T06:43:19;100505.44;;;13.39;73.59
49423;BME280;36998;51.974;20.150;2022-10-31T06:45:44;100513.41;;;13.41;74.00
49423;BME280;36998;51.974;20.150;2022-10-31T06:48:20;100508.47;;;13.44;73.87
49423;BME280;36998;51.974;20.150;2022-10-31T06:51:08;100508.06;;;13.55;73.77
49423;BME280;36998;51.974;20.150;2022-10-31T06:53:34;100515.84;;;13.58;73.77
49423;BME280;36998;51.974;20.150;2022-10-31T06:56:01;100503.59;;;13.63;74.09
49423;BME280;36998;51.974;20.150;2022-10-31T06:58:28;100509.03;;;13.63;73.91
49423;BME280;36998;51.974;20.150;2022-10-31T07:00:59;100514.56;;;13.77;73.34
49423;BME280;36998;51.974;20.150;2022-10-31T07:03:24;100517.03;;;13.64;73.72
49423;BME280;36998;51.974;20.150;2022-10-31T07:05:50;100515.31;;;13.63;73.98
49423;BME280;36998;51.974;20.150;2022-10-31T07:08:16;100521.75;;;13.70;74.15
49423;BME280;36998;51.974;20.150;2022-10-31T07:10:42;100523.19;;;13.81;74.12
49423;BME280;36998;51.974;20.150;2022-10-31T07:13:13;100520.78;;;13.86;74.05
49423;BME280;36998;51.974;20.150;2022-10-31T07:15:44;100520.38;;;13.97;74.34
49423;BME280;36998;51.974;20.150;2022-10-31T07:18:12;100526.41;;;14.08;74.16
49423;BME280;36998;51.974;20.150;2022-10-31T07:20:38;100522.06;;;14.21;73.87
49423;BME280;36998;51.974;20.150;2022-10-31T07:23:04;100522.31;;;14.35;73.71
49423;BME280;36998;51.974;20.150;2022-10-31T07:25:31;100531.94;;;14.45;73.69
49423;BME280;36998;51.974;20.150;2022-10-31T07:28:14;100537.72;;;14.42;73.78
49423;BME280;36998;51.974;20.150;2022-10-31T07:30:48;100528.47;;;14.51;73.28
49423;BME280;36998;51.974;20.150;2022-10-31T07:33:14;100538.38;;;14.44;73.79
49423;BME280;36998;51.974;20.150;2022-10-31T07:36:12;100535.63;;;14.52;73.44
49423;BME280;36998;51.974;20.150;2022-10-31T07:38:40;100530.69;;;14.71;73.22
49423;BME280;36998;51.974;20.150;2022-10-31T07:41:06;100543.28;;;14.87;73.39
49423;BME280;36998;51.974;20.150;2022-10-31T07:43:38;100539.09;;;14.99;72.94
49423;BME280;36998;51.974;20.150;2022-10-31T07:46:15;100535.25;;;15.08;72.72
49423;BME280;36998;51.974;20.150;2022-10-31T07:49:03;100540.34;;;15.11;72.52
49423;BME280;36998;51.974;20.150;2022-10-31T07:52:01;100546.63;;;15.12;72.24
49423;BME280;36998;51.974;20.150;2022-10-31T07:54:46;100543.59;;;15.07;72.25
49423;BME280;36998;51.974;20.150;2022-10-31T07:57:11;100548.19;;;15.06;72.12
49423;BME280;36998;51.974;20.150;2022-10-31T07:59:37;100549.81;;;15.15;72.15
49423;BME280;36998;51.974;20.150;2022-10-31T08:02:04;100541.53;;;15.23;72.00
49423;BME280;36998;51.974;20.150;2022-10-31T08:04:30;100542.03;;;15.27;71.95
49423;BME280;36998;51.974;20.150;2022-10-31T08:07:14;100558.25;;;15.35;71.88
49423;BME280;36998;51.974;20.150;2022-10-31T08:09:44;100556.94;;;15.46;71.46
49423;BME280;36998;51.974;20.150;2022-10-31T08:12:19;100565.75;;;15.48;71.31
49423;BME280;36998;51.974;20.150;2022-10-31T08:14:45;100563.00;;;15.63;71.18
49423;BME280;36998;51.974;20.150;2022-10-31T08:17:12;100564.63;;;15.72;70.73
49423;BME280;36998;51.974;20.150;2022-10-31T08:19:47;100571.41;;;15.76;70.63
49423;BME280;36998;51.974;20.150;2022-10-31T08:22:15;100560.59;;;15.83;70.46
49423;BME280;36998;51.974;20.150;2022-10-31T08:24:40;100558.59;;;15.91;70.34
49423;BME280;36998;51.974;20.150;2022-10-31T08:27:06;100561.75;;;15.95;70.09
49423;BME280;36998;51.974;20.150;2022-10-31T08:29:32;100556.00;;;16.05;69.97
49423;BME280;36998;51.974;20.150;2022-10-31T08:31:57;100568.94;;;16.18;69.82
49423;BME280;36998;51.974;20.150;2022-10-31T08:34:42;100566.50;;;16.23;69.75
49423;BME280;36998;51.974;20.150;2022-10-31T08:37:37;100560.22;;;16.22;69.48
49423;BME280;36998;51.974;20.150;2022-10-31T08:40:04;100565.28;;;16.25;69.59
49423;BME280;36998;51.974;20.150;2022-10-31T08:42:33;100568.59;;;16.42;69.21
49423;BME280;36998;51.974;20.150;2022-10-31T08:44:59;100569.22;;;16.44;68.98
49423;BME280;36998;51.974;20.150;2022-10-31T08:47:25;100559.81;;;16.47;69.07
49423;BME280;36998;51.974;20.150;2022-10-31T08:49:52;100563.72;;;16.59;68.99
49423;BME280;36998;51.974;20.150;2022-10-31T08:52:22;100567.59;;;16.71;69.21
49423;BME280;36998;51.974;20.150;2022-10-31T08:54:48;100568.03;;;16.96;68.77
49423;BME280;36998;51.974;20.150;2022-10-31T08:57:34;100565.75;;;17.28;68.51
49423;BME280;36998;51.974;20.150;2022-10-31T08:59:59;100568.75;;;17.40;68.05
49423;BME280;36998;51.974;20.150;2022-10-31T09:03:03;100563.97;;;17.48;68.04
49423;BME280;36998;51.974;20.150;2022-10-31T09:05:31;100572.25;;;17.68;67.78
49423;BME280;36998;51.974;20.150;2022-10-31T09:07:58;100562.69;;;17.79;67.59
49423;BME280;36998;51.974;20.150;2022-10-31T09:10:26;100556.41;;;17.92;67.25
49423;BME280;36998;51.974;20.150;2022-10-31T09:13:06;100562.38;;;18.09;66.96
49423;BME280;36998;51.974;20.150;2022-10-31T09:15:48;100558.19;;;18.26;66.17
49423;BME280;36998;51.974;20.150;2022-10-31T09:18:23;100554.00;;;18.37;65.76
49423;BME280;36998;51.974;20.150;2022-10-31T09:20:58;100556.75;;;18.50;65.55
49423;BME280;36998;51.974;20.150;2022-10-31T09:23:26;100552.59;;;18.61;64.82
49423;BME280;36998;51.974;20.150;2022-10-31T09:25:52;100558.66;;;18.63;64.88
49423;BME280;36998;51.974;20.150;2022-10-31T09:28:40;100559.72;;;18.62;64.68
49423;BME280;36998;51.974;20.150;2022-10-31T09:31:08;100556.56;;;18.65;64.92
49423;BME280;36998;51.974;20.150;2022-10-31T09:33:48;100563.31;;;18.62;64.29
49423;BME280;36998;51.974;20.150;2022-10-31T09:36:41;100561.81;;;18.53;64.26
49423;BME280;36998;51.974;20.150;2022-10-31T09:39:16;100561.41;;;18.49;64.28
49423;BME280;36998;51.974;20.150;2022-10-31T09:41:52;100570.00;;;18.40;64.14
49423;BME280;36998;51.974;20.150;2022-10-31T09:47:18;100569.31;;;18.18;63.93
49423;BME280;36998;51.974;20.150;2022-10-31T09:50:21;100576.00;;;17.95;64.27
49423;BME280;36998;51.974;20.150;2022-10-31T09:52:58;100578.72;;;17.89;64.68
49423;BME280;36998;51.974;20.150;2022-10-31T09:55:31;100583.31;;;17.95;64.54
49423;BME280;36998;51.974;20.150;2022-10-31T09:58:00;100577.44;;;17.91;64.44
49423;BME280;36998;51.974;20.150;2022-10-31T10:00:26;100585.81;;;17.83;64.76
49423;BME280;36998;51.974;20.150;2022-10-31T10:06:11;100575.66;;;18.18;64.43
49423;BME280;36998;51.974;20.150;2022-10-31T10:08:59;100572.50;;;18.21;64.02
49423;BME280;36998;51.974;20.150;2022-10-31T10:11:54;100575.81;;;18.04;64.17
49423;BME280;36998;51.974;20.150;2022-10-31T10:22:52;100573.38;;;18.35;64.21
49423;BME280;36998;51.974;20.150;2022-10-31T10:25:25;100574.88;;;18.58;63.09
49423;BME280;36998;51.974;20.150;2022-10-31T10:27:59;100582.00;;;18.39;62.89
49423;BME280;36998;51.974;20.150;2022-10-31T10:33:12;100565.38;;;18.47;63.10
49423;BME280;36998;51.974;20.150;2022-10-31T10:35:42;100573.59;;;18.47;62.74
49423;BME280;36998;51.974;20.150;2022-10-31T10:38:18;100584.34;;;18.48;62.59
49423;BME280;36998;51.974;20.150;2022-10-31T10:40:46;100577.34;;;18.26;62.17
49423;BME280;36998;51.974;20.150;2022-10-31T10:43:19;100580.63;;;18.01;62.52
49423;BME280;36998;51.974;20.150;2022-10-31T10:49:14;100579.72;;;17.88;63.03
49423;BME280;36998;51.974;20.150;2022-10-31T10:52:07;100581.69;;;18.00;63.09
49423;BME280;36998;51.974;20.150;2022-10-31T10:54:59;100578.16;;;18.13;62.94
49423;BME280;36998;51.974;20.150;2022-10-31T10:57:49;100579.25;;;18.32;62.82
49423;BME280;36998;51.974;20.150;2022-10-31T11:00:37;100579.69;;;18.42;62.60
49423;BME280;36998;51.974;20.150;2022-10-31T11:03:03;100579.94;;;18.54;62.24
49423;BME280;36998;51.974;20.150;2022-10-31T11:07:59;100576.34;;;18.67;61.88
49423;BME280;36998;51.974;20.150;2022-10-31T11:10:25;100583.13;;;18.78;61.86
49423;BME280;36998;51.974;20.150;2022-10-31T11:15:48;100577.25;;;18.81;61.01
49423;BME280;36998;51.974;20.150;2022-10-31T11:18:22;100574.94;;;18.78;61.28
49423;BME280;36998;51.974;20.150;2022-10-31T11:20:52;100576.78;;;18.64;61.04
49423;BME280;36998;51.974;20.150;2022-10-31T11:23:19;100582.25;;;18.64;61.30
49423;BME280;36998;51.974;20.150;2022-10-31T11:26:05;100567.72;;;18.63;61.23
49423;BME280;36998;51.974;20.150;2022-10-31T11:28:32;100567.06;;;18.35;61.38
49423;BME280;36998;51.974;20.150;2022-10-31T11:31:05;100574.38;;;18.21;61.70
49423;BME280;36998;51.974;20.150;2022-10-31T11:33:49;100575.00;;;18.16;61.90
49423;BME280;36998;51.974;20.150;2022-10-31T11:36:30;100578.38;;;18.12;61.90
49423;BME280;36998;51.974;20.150;2022-10-31T11:38:58;100572.41;;;18.01;61.79
49423;BME280;36998;51.974;20.150;2022-10-31T11:41:30;100570.31;;;17.97;62.23
49423;BME280;36998;51.974;20.150;2022-10-31T11:44:01;100569.44;;;17.90;62.32
49423;BME280;36998;51.974;20.150;2022-10-31T11:46:34;100569.91;;;18.00;62.38
49423;BME280;36998;51.974;20.150;2022-10-31T11:49:01;100577.03;;;18.01;62.15
49423;BME280;36998;51.974;20.150;2022-10-31T11:51:33;100565.94;;;18.09;62.46
49423;BME280;36998;51.974;20.150;2022-10-31T11:54:00;100561.31;;;18.10;62.28
49423;BME280;36998;51.974;20.150;2022-10-31T11:56:37;100560.66;;;18.08;62.22
49423;BME280;36998;51.974;20.150;2022-10-31T11:59:12;100564.00;;;17.96;62.15
49423;BME280;36998;51.974;20.150;2022-10-31T12:01:40;100564.16;;;17.88;62.22
49423;BME280;36998;51.974;20.150;2022-10-31T12:04:12;100566.69;;;17.83;62.74
49423;BME280;36998;51.974;20.150;2022-10-31T12:06:43;100572.78;;;17.85;62.88
49423;BME280;36998;51.974;20.150;2022-10-31T12:09:25;100555.38;;;17.93;62.71
49423;BME280;36998;51.974;20.150;2022-10-31T12:14:46;100560.47;;;18.02;62.53
49423;BME280;36998;51.974;20.150;2022-10-31T12:17:29;100566.53;;;18.05;62.81
49423;BME280;36998;51.974;20.150;2022-10-31T12:23:11;100556.25;;;18.07;62.58
49423;BME280;36998;51.974;20.150;2022-10-31T12:25:48;100556.03;;;18.01;62.47
49423;BME280;36998;51.974;20.150;2022-10-31T12:40:01;100553.78;;;17.70;63.21
49423;BME280;36998;51.974;20.150;2022-10-31T12:45:43;100551.69;;;17.72;63.75
49423;BME280;36998;51.974;20.150;2022-10-31T12:51:09;100556.59;;;17.49;64.45
49423;BME280;36998;51.974;20.150;2022-10-31T12:56:22;100564.78;;;17.49;64.50
49423;BME280;36998;51.974;20.150;2022-10-31T13:01:45;100551.69;;;17.66;64.74
49423;BME280;36998;51.974;20.150;2022-10-31T13:04:23;100553.78;;;17.70;64.45
49423;BME280;36998;51.974;20.150;2022-10-31T13:07:02;100551.69;;;17.66;64.79
49423;BME280;36998;51.974;20.150;2022-10-31T13:09:51;100552.13;;;17.76;64.90
49423;BME280;36998;51.974;20.150;2022-10-31T13:12:20;100550.91;;;17.85;64.52
49423;BME280;36998;51.974;20.150;2022-10-31T13:14:51;100555.13;;;17.81;64.35
49423;BME280;36998;51.974;20.150;2022-10-31T13:17:38;100547.59;;;17.90;64.16
49423;BME280;36998;51.974;20.150;2022-10-31T13:20:28;100549.59;;;17.74;64.60
49423;BME280;36998;51.974;20.150;2022-10-31T13:23:10;100548.31;;;17.70;64.45
49423;BME280;36998;51.974;20.150;2022-10-31T13:25:44;100544.81;;;17.76;64.61
49423;BME280;36998;51.974;20.150;2022-10-31T13:28:47;100559.09;;;17.78;64.92
49423;BME280;36998;51.974;20.150;2022-10-31T13:31:10;100563.13;;;17.83;64.68
49423;BME280;36998;51.974;20.150;2022-10-31T13:33:53;100550.31;;;17.83;64.72
49423;BME280;36998;51.974;20.150;2022-10-31T13:36:33;100556.81;;;17.82;64.85
49423;BME280;36998;51.974;20.150;2022-10-31T13:39:25;100558.63;;;17.75;65.22
49423;BME280;36998;51.974;20.150;2022-10-31T13:44:55;100559.78;;;17.94;64.47
49423;BME280;36998;51.974;20.150;2022-10-31T13:47:24;100561.34;;;17.75;64.78
49423;BME280;36998;51.974;20.150;2022-10-31T13:50:28;100558.00;;;17.73;64.99
49423;BME280;36998;51.974;20.150;2022-10-31T13:53:09;100551.06;;;17.70;64.99
49423;BME280;36998;51.974;20.150;2022-10-31T13:55:44;100552.53;;;17.73;65.08
49423;BME280;36998;51.974;20.150;2022-10-31T13:58:23;100548.81;;;17.81;65.14
49423;BME280;36998;51.974;20.150;2022-10-31T14:01:18;100553.25;;;17.88;65.13
49423;BME280;36998;51.974;20.150;2022-10-31T14:03:46;100554.72;;;17.84;64.83
49423;BME280;36998;51.974;20.150;2022-10-31T14:06:14;100557.13;;;17.66;65.22
49423;BME280;36998;51.974;20.150;2022-10-31T14:08:48;100558.78;;;17.60;65.35
49423;BME280;36998;51.974;20.150;2022-10-31T14:11:23;100556.25;;;17.59;65.54
49423;BME280;36998;51.974;20.150;2022-10-31T14:13:50;100556.47;;;17.64;65.49
49423;BME280;36998;51.974;20.150;2022-10-31T14:16:23;100553.50;;;17.59;65.69
49423;BME280;36998;51.974;20.150;2022-10-31T14:21:29;100547.56;;;17.48;66.12
49423;BME280;36998;51.974;20.150;2022-10-31T14:23:56;100552.84;;;17.50;66.02
49423;BME280;36998;51.974;20.150;2022-10-31T14:31:45;100551.44;;;17.26;66.64